createdAt,value
2022-07-27T00:01:11.081Z,14.25
2022-07-27T00:03:39.254Z,14.35
2022-07-27T00:06:07.925Z,14.23
2022-07-27T00:08:35.858Z,14.63
2022-07-27T00:11:03.889Z,13.95
2022-07-27T00:13:32.699Z,14.30
2022-07-27T00:16:00.738Z,14.48
2022-07-27T00:18:30.227Z,14.90
2022-07-27T00:20:58.109Z,14.60
2022-07-27T00:23:26.008Z,14.05
2022-07-27T00:25:53.916Z,14.30
2022-07-27T00:28:21.794Z,13.95
2022-07-27T00:30:49.752Z,14.18
2022-07-27T00:33:17.745Z,14.80
2022-07-27T00:35:47.203Z,14.90
2022-07-27T00:38:16.539Z,15.35
2022-07-27T00:40:45.221Z,14.40
2022-07-27T00:43:13.599Z,12.63
2022-07-27T00:45:41.762Z,12.10
2022-07-27T00:48:09.837Z,12.63
2022-07-27T00:50:38.754Z,12.48
2022-07-27T00:53:09.429Z,12.32
2022-07-27T00:55:38.010Z,12.35
2022-07-27T00:58:08.728Z,12.70
2022-07-27T01:00:38.503Z,12.32
2022-07-27T01:03:09.023Z,11.98
2022-07-27T01:05:43.077Z,12.68
2022-07-27T01:08:14.302Z,12.57
2022-07-27T01:10:43.729Z,12.95
2022-07-27T01:13:13.416Z,12.80
2022-07-27T01:15:43.084Z,13.80
2022-07-27T01:18:27.733Z,12.63
2022-07-27T01:20:55.858Z,13.70
2022-07-27T01:23:25.648Z,13.32
2022-07-27T01:25:54.054Z,13.00
2022-07-27T01:28:22.429Z,13.00
2022-07-27T01:30:50.414Z,12.73
2022-07-27T01:33:18.382Z,12.30
2022-07-27T01:35:46.335Z,12.50
2022-07-27T01:38:14.258Z,13.80
2022-07-27T01:40:43.534Z,14.45
2022-07-27T01:43:11.425Z,13.45
2022-07-27T01:45:40.993Z,13.40
2022-07-27T01:48:08.929Z,13.40
2022-07-27T01:50:36.983Z,13.93
2022-07-27T01:53:04.952Z,13.75
2022-07-27T01:55:39.129Z,14.13
2022-07-27T01:58:09.311Z,13.77
2022-07-27T02:00:37.561Z,12.73
2022-07-27T02:03:06.729Z,12.20
2022-07-27T02:05:34.802Z,11.80
2022-07-27T02:08:02.765Z,12.63
2022-07-27T02:10:30.709Z,12.07
2022-07-27T02:12:57.818Z,12.10
2022-07-27T02:15:33.872Z,12.25
2022-07-27T02:18:32.880Z,12.38
2022-07-27T02:21:00.233Z,12.48
2022-07-27T02:23:28.137Z,12.70
2022-07-27T02:25:55.997Z,12.47
2022-07-27T02:28:23.992Z,12.63
2022-07-27T02:30:53.261Z,12.03
2022-07-27T02:33:21.239Z,12.77
2022-07-27T02:35:49.216Z,12.77
2022-07-27T02:38:17.070Z,12.30
2022-07-27T02:40:45.284Z,12.17
2022-07-27T02:43:14.090Z,12.53
2022-07-27T02:45:42.010Z,12.23
2022-07-27T02:48:11.285Z,12.83
2022-07-27T02:50:39.205Z,12.67
2022-07-27T02:53:07.093Z,12.37
2022-07-27T02:55:34.996Z,13.20
2022-07-27T02:58:02.880Z,13.03
2022-07-27T03:00:31.016Z,12.73
2022-07-27T03:02:59.023Z,12.87
2022-07-27T03:05:28.282Z,12.37
2022-07-27T03:07:56.168Z,13.00
2022-07-27T03:10:24.032Z,12.87
2022-07-27T03:12:51.997Z,12.87
2022-07-27T03:15:19.900Z,13.07
2022-07-27T03:17:47.773Z,12.70
2022-07-27T03:20:16.073Z,12.67
2022-07-27T03:22:45.318Z,12.33
2022-07-27T03:25:13.670Z,14.10
2022-07-27T03:27:41.577Z,13.10
2022-07-27T03:30:10.297Z,13.87
2022-07-27T03:32:38.203Z,13.70
2022-07-27T03:35:07.102Z,15.43
2022-07-27T03:37:35.677Z,14.07
2022-07-27T03:40:05.331Z,13.33
2022-07-27T03:42:33.241Z,13.40
2022-07-27T03:45:01.126Z,13.53
2022-07-27T03:47:29.028Z,14.00
2022-07-27T03:49:56.911Z,12.80
2022-07-27T03:52:24.819Z,13.20
2022-07-27T03:54:52.740Z,12.53
2022-07-27T03:57:21.996Z,13.70
2022-07-27T03:59:50.086Z,13.67
2022-07-27T04:02:18.029Z,13.83
2022-07-27T04:04:45.940Z,13.10
2022-07-27T04:07:13.880Z,13.77
2022-07-27T04:09:41.825Z,13.40
2022-07-27T04:12:11.691Z,14.00
2022-07-27T04:14:40.981Z,14.00
2022-07-27T04:17:08.943Z,13.07
2022-07-27T04:19:36.859Z,13.77
2022-07-27T04:22:04.836Z,14.18
2022-07-27T04:24:32.704Z,13.98
2022-07-27T04:27:00.594Z,12.87
2022-07-27T04:29:28.773Z,11.98
2022-07-27T04:31:58.070Z,13.25
2022-07-27T04:34:26.037Z,12.20
2022-07-27T04:36:53.943Z,12.98
2022-07-27T04:39:21.912Z,11.57
2022-07-27T04:41:49.870Z,13.15
2022-07-27T04:44:17.725Z,13.43
2022-07-27T04:46:45.672Z,14.55
2022-07-27T04:49:15.278Z,12.07
2022-07-27T04:51:45.040Z,15.05
2022-07-27T04:54:13.532Z,12.75
2022-07-27T04:56:42.654Z,13.32
2022-07-27T04:59:11.715Z,12.88
2022-07-27T05:01:39.900Z,12.45
2022-07-27T05:04:07.865Z,11.80
2022-07-27T05:06:37.277Z,12.68
2022-07-27T05:09:05.213Z,13.00
2022-07-27T05:11:33.080Z,11.52
2022-07-27T05:14:00.984Z,12.73
2022-07-27T05:16:29.338Z,12.23
2022-07-27T05:18:57.677Z,16.42
2022-07-27T05:21:25.768Z,12.00
2022-07-27T05:23:55.026Z,11.82
2022-07-27T05:26:23.341Z,12.80
2022-07-27T05:28:51.335Z,12.55
2022-07-27T05:31:19.868Z,13.27
2022-07-27T05:33:49.824Z,11.90
2022-07-27T05:36:19.368Z,11.98
2022-07-27T05:38:47.278Z,11.75
2022-07-27T05:41:16.660Z,12.90
2022-07-27T05:43:44.682Z,11.20
2022-07-27T05:46:12.692Z,10.98
2022-07-27T05:48:40.699Z,11.60
2022-07-27T05:51:09.510Z,11.20
2022-07-27T05:53:37.488Z,11.05
2022-07-27T05:56:07.913Z,12.82
2022-07-27T05:58:37.426Z,9.90
2022-07-27T06:01:05.480Z,10.07
2022-07-27T06:03:34.006Z,10.23
2022-07-27T06:06:19.402Z,9.52
2022-07-27T06:08:47.333Z,9.45
2022-07-27T06:11:15.521Z,9.93
2022-07-27T06:13:44.960Z,11.20
2022-07-27T06:16:13.013Z,9.35
2022-07-27T06:18:41.019Z,10.13
2022-07-27T06:21:09.226Z,9.43
2022-07-27T06:23:37.317Z,10.02
2022-07-27T06:26:05.340Z,11.10
2022-07-27T06:28:33.497Z,9.85
2022-07-27T06:31:02.856Z,9.88
2022-07-27T06:33:31.764Z,9.07
2022-07-27T06:36:02.089Z,9.50
2022-07-27T06:38:30.499Z,9.25
2022-07-27T06:40:58.494Z,9.98
2022-07-27T06:43:28.036Z,9.80
2022-07-27T06:45:56.176Z,9.48
2022-07-27T06:48:26.352Z,9.57
2022-07-27T06:50:54.428Z,9.48
2022-07-27T06:53:22.799Z,10.40
2022-07-27T06:55:51.033Z,9.95
2022-07-27T06:58:19.808Z,10.93
2022-07-27T07:00:48.209Z,10.65
2022-07-27T07:03:16.328Z,10.07
2022-07-27T07:05:47.261Z,10.05
2022-07-27T07:08:15.707Z,9.95
2022-07-27T07:10:46.383Z,11.07
2022-07-27T07:13:14.586Z,9.55
2022-07-27T07:15:44.245Z,10.07
2022-07-27T07:18:13.529Z,10.52
2022-07-27T07:20:42.385Z,9.90
2022-07-27T07:23:12.455Z,9.95
2022-07-27T07:25:40.908Z,10.57
2022-07-27T07:28:09.769Z,10.15
2022-07-27T07:30:37.873Z,10.85
2022-07-27T07:33:06.134Z,11.73
2022-07-27T07:35:34.192Z,10.38
2022-07-27T07:38:02.125Z,10.82
2022-07-27T07:40:46.757Z,10.80
2022-07-27T07:43:15.279Z,10.90
2022-07-27T07:45:51.500Z,10.13
2022-07-27T07:48:21.484Z,10.23
2022-07-27T07:50:52.404Z,10.23
2022-07-27T07:53:22.431Z,10.27
2022-07-27T07:55:52.209Z,11.43
2022-07-27T07:58:20.512Z,9.85
2022-07-27T08:00:48.962Z,10.90
2022-07-27T08:03:17.104Z,10.90
2022-07-27T08:05:45.187Z,10.35
2022-07-27T08:08:13.392Z,10.30
2022-07-27T08:10:41.293Z,10.70
2022-07-27T08:13:10.934Z,10.05
2022-07-27T08:15:38.888Z,11.02
2022-07-27T08:18:07.279Z,10.52
2022-07-27T08:20:35.469Z,10.48
2022-07-27T08:23:03.776Z,10.50
2022-07-27T08:25:32.125Z,10.10
2022-07-27T08:28:00.219Z,11.32
2022-07-27T08:30:33.738Z,10.05
2022-07-27T08:33:03.772Z,10.13
2022-07-27T08:35:32.859Z,10.40
2022-07-27T08:38:01.916Z,10.43
2022-07-27T08:40:46.825Z,9.45
2022-07-27T08:43:23.772Z,11.18
2022-07-27T08:45:59.050Z,10.73
2022-07-27T08:48:27.892Z,10.00
2022-07-27T08:50:56.312Z,10.18
2022-07-27T08:53:24.701Z,9.90
2022-07-27T08:55:52.830Z,11.70
2022-07-27T08:58:21.013Z,9.82
2022-07-27T09:00:50.348Z,10.18
2022-07-27T09:03:22.204Z,10.20
2022-07-27T09:05:53.088Z,11.82
2022-07-27T09:08:24.465Z,11.60
2022-07-27T09:10:54.690Z,9.85
2022-07-27T09:13:25.049Z,9.90
2022-07-27T09:16:17.024Z,10.48
2022-07-27T09:18:44.222Z,10.30
2022-07-27T09:21:15.244Z,10.77
2022-07-27T09:23:44.565Z,10.15
2022-07-27T09:26:31.299Z,10.25
2022-07-27T09:29:02.740Z,10.65
2022-07-27T09:31:32.360Z,11.27
2022-07-27T09:34:03.602Z,10.23
2022-07-27T09:36:32.250Z,9.82
2022-07-27T09:39:12.893Z,9.80
2022-07-27T09:41:43.540Z,9.80
2022-07-27T09:44:31.309Z,10.25
2022-07-27T09:47:00.664Z,9.57
2022-07-27T09:49:32.248Z,10.15
2022-07-27T09:52:02.704Z,9.80
2022-07-27T09:54:44.436Z,9.65
2022-07-27T09:57:12.491Z,10.23
2022-07-27T09:59:40.565Z,10.05
2022-07-27T10:02:09.245Z,9.73
2022-07-27T10:04:39.020Z,10.43
2022-07-27T10:07:12.858Z,10.50
2022-07-27T10:09:42.001Z,9.70
2022-07-27T10:12:10.700Z,10.25
2022-07-27T10:14:38.655Z,10.65
2022-07-27T10:17:10.695Z,11.23
2022-07-27T10:19:46.825Z,9.75
2022-07-27T10:22:15.240Z,10.05
2022-07-27T10:24:43.677Z,10.45
2022-07-27T10:27:22.641Z,10.45
2022-07-27T10:29:51.833Z,9.80
2022-07-27T10:32:26.756Z,10.65
2022-07-27T10:34:56.162Z,10.40
2022-07-27T10:37:26.324Z,10.65
2022-07-27T10:40:16.075Z,10.50
2022-07-27T10:42:47.821Z,10.57
2022-07-27T10:45:20.423Z,10.88
2022-07-27T10:47:50.526Z,11.50
2022-07-27T10:50:30.131Z,10.60
2022-07-27T10:53:01.278Z,11.88
2022-07-27T10:55:48.470Z,11.55
2022-07-27T10:58:52.772Z,11.57
2022-07-27T11:01:22.773Z,11.80
2022-07-27T11:03:56.464Z,10.98
2022-07-27T11:06:34.719Z,11.40
2022-07-27T11:11:59.097Z,11.25
2022-07-27T11:14:31.671Z,11.18
2022-07-27T11:17:24.264Z,10.75
2022-07-27T11:19:55.986Z,10.90
2022-07-27T11:23:14.091Z,11.68
2022-07-27T11:25:20.732Z,10.60
2022-07-27T11:27:49.573Z,10.90
2022-07-27T11:30:27.948Z,10.60
2022-07-27T11:32:57.171Z,10.50
2022-07-27T11:35:25.822Z,11.57
2022-07-27T11:38:01.846Z,11.25
2022-07-27T11:43:36.913Z,11.40
2022-07-27T11:46:16.044Z,11.80
2022-07-27T11:49:09.025Z,11.98
2022-07-27T11:51:40.451Z,11.80
2022-07-27T11:54:11.947Z,11.02
2022-07-27T11:56:43.392Z,10.98
2022-07-27T11:59:17.263Z,10.43
2022-07-27T12:01:48.061Z,10.63
2022-07-27T12:04:20.068Z,11.50
2022-07-27T12:06:55.297Z,11.25
2022-07-27T12:09:25.173Z,11.65
2022-07-27T12:11:59.368Z,11.80
2022-07-27T12:14:37.068Z,10.98
2022-07-27T12:17:29.161Z,10.88
2022-07-27T12:20:00.434Z,11.02
2022-07-27T12:22:32.179Z,10.07
2022-07-27T12:25:05.717Z,9.90
2022-07-27T12:27:38.320Z,11.20
2022-07-27T12:30:11.339Z,10.57
2022-07-27T12:32:42.143Z,10.73
2022-07-27T12:35:25.184Z,9.82
2022-07-27T12:38:00.868Z,10.23
2022-07-27T12:40:31.301Z,10.18
2022-07-27T12:43:01.317Z,10.27
2022-07-27T12:45:34.668Z,10.90
2022-07-27T12:48:11.105Z,12.20
2022-07-27T12:50:41.537Z,10.48
2022-07-27T12:53:10.779Z,11.07
2022-07-27T12:55:40.305Z,10.10
2022-07-27T12:58:10.707Z,10.48
2022-07-27T13:00:39.553Z,10.35
2022-07-27T13:03:08.911Z,9.98
2022-07-27T13:05:37.259Z,9.95
2022-07-27T13:08:05.648Z,10.25
2022-07-27T13:10:34.019Z,10.57
2022-07-27T13:13:03.527Z,9.38
2022-07-27T13:15:31.508Z,10.60
2022-07-27T13:17:59.570Z,10.63
2022-07-27T13:20:28.462Z,10.93
2022-07-27T13:22:56.585Z,10.80
2022-07-27T13:25:24.971Z,10.80
2022-07-27T13:27:52.934Z,10.77
2022-07-27T13:30:23.044Z,10.55
2022-07-27T13:32:50.986Z,10.85
2022-07-27T13:35:18.925Z,9.85
2022-07-27T13:37:46.958Z,11.40
2022-07-27T13:40:15.856Z,10.55
2022-07-27T13:42:43.768Z,10.13
2022-07-27T13:45:12.497Z,10.05
2022-07-27T13:47:42.522Z,10.45
2022-07-27T13:50:18.349Z,10.20
2022-07-27T13:52:48.515Z,9.55
2022-07-27T13:55:17.621Z,10.13
2022-07-27T13:57:46.623Z,9.30
2022-07-27T14:00:16.103Z,8.60
2022-07-27T14:02:46.154Z,8.60
2022-07-27T14:05:14.825Z,8.20
2022-07-27T14:07:44.295Z,8.80
2022-07-27T14:10:31.034Z,8.90
2022-07-27T14:13:07.394Z,8.23
2022-07-27T14:15:53.209Z,8.27
2022-07-27T14:18:25.964Z,8.18
2022-07-27T14:20:54.511Z,8.50
2022-07-27T14:23:22.763Z,7.80
2022-07-27T14:25:50.794Z,7.53
2022-07-27T14:28:19.546Z,8.60
2022-07-27T14:30:49.569Z,8.25
2022-07-27T14:33:17.885Z,7.70
2022-07-27T14:35:48.652Z,8.00
2022-07-27T14:38:27.873Z,7.28
2022-07-27T14:40:59.594Z,9.88
2022-07-27T14:43:28.592Z,9.57
2022-07-27T14:45:56.522Z,9.05
2022-07-27T14:48:37.109Z,9.85
2022-07-27T14:51:13.801Z,8.73
2022-07-27T14:53:41.770Z,9.93
2022-07-27T14:56:09.702Z,9.00
2022-07-27T14:58:37.606Z,7.97
2022-07-27T15:01:05.653Z,8.63
2022-07-27T15:03:33.624Z,9.05
2022-07-27T15:06:01.541Z,9.38
2022-07-27T15:08:30.864Z,8.60
2022-07-27T15:10:58.814Z,7.95
2022-07-27T15:13:26.833Z,8.60
2022-07-27T15:15:56.216Z,8.48
2022-07-27T15:18:24.230Z,8.32
2022-07-27T15:20:52.236Z,9.13
2022-07-27T15:23:20.201Z,8.55
2022-07-27T15:25:49.780Z,8.05
2022-07-27T15:28:17.771Z,8.57
2022-07-27T15:30:45.678Z,8.00
2022-07-27T15:33:13.623Z,7.85
2022-07-27T15:35:41.527Z,7.20
2022-07-27T15:38:09.471Z,7.07
2022-07-27T15:40:41.714Z,8.38
2022-07-27T15:43:13.160Z,7.80
2022-07-27T15:45:42.158Z,7.63
2022-07-27T15:48:12.459Z,9.20
2022-07-27T15:50:42.474Z,11.63
2022-07-27T15:53:10.966Z,10.32
2022-07-27T15:55:39.321Z,11.40
2022-07-27T15:58:07.807Z,12.10
2022-07-27T16:00:41.126Z,12.77
2022-07-27T16:03:10.182Z,12.23
2022-07-27T16:05:38.614Z,16.50
2022-07-27T16:08:09.102Z,10.40
2022-07-27T16:10:37.570Z,9.07
2022-07-27T16:13:06.089Z,9.75
2022-07-27T16:15:52.010Z,8.48
2022-07-27T16:18:21.390Z,7.93
2022-07-27T16:20:49.410Z,6.88
2022-07-27T16:23:18.719Z,6.88
2022-07-27T16:26:08.105Z,6.63
2022-07-27T16:28:38.805Z,6.13
2022-07-27T16:31:08.944Z,6.88
2022-07-27T16:33:38.738Z,6.18
2022-07-27T16:36:08.645Z,6.32
2022-07-27T16:38:37.038Z,6.50
2022-07-27T16:41:07.345Z,6.93
2022-07-27T16:43:38.180Z,6.50
2022-07-27T16:46:07.945Z,6.50
2022-07-27T16:48:42.343Z,6.32
2022-07-27T16:51:12.848Z,6.10
2022-07-27T16:53:42.553Z,6.40
2022-07-27T16:56:11.413Z,7.72
2022-07-27T16:58:40.032Z,6.93
2022-07-27T17:01:08.775Z,6.72
2022-07-27T17:03:37.610Z,6.63
2022-07-27T17:06:07.512Z,6.38
2022-07-27T17:08:36.454Z,7.32
2022-07-27T17:11:05.387Z,7.40
2022-07-27T17:13:35.040Z,10.20
2022-07-27T17:16:03.947Z,10.95
2022-07-27T17:18:37.155Z,7.78
2022-07-27T17:21:09.584Z,8.27
2022-07-27T17:23:39.854Z,8.25
2022-07-27T17:26:08.889Z,7.78
2022-07-27T17:28:39.382Z,8.07
2022-07-27T17:31:09.718Z,8.40
2022-07-27T17:33:38.331Z,8.45
2022-07-27T17:36:14.243Z,9.00
2022-07-27T17:38:42.932Z,9.05
2022-07-27T17:41:10.851Z,9.00
2022-07-27T17:43:39.528Z,9.63
2022-07-27T17:46:07.922Z,8.80
2022-07-27T17:48:35.967Z,9.07
2022-07-27T17:51:04.444Z,9.05
2022-07-27T17:53:34.422Z,9.35
2022-07-27T17:56:02.898Z,8.85
2022-07-27T17:58:30.921Z,9.18
2022-07-27T18:00:59.380Z,8.88
2022-07-27T18:03:27.584Z,8.73
2022-07-27T18:05:55.685Z,8.35
2022-07-27T18:08:24.572Z,8.20
2022-07-27T18:10:54.049Z,8.57
2022-07-27T18:13:21.993Z,8.70
2022-07-27T18:15:50.595Z,8.38
2022-07-27T18:18:20.536Z,7.40
2022-07-27T18:20:50.241Z,8.00
2022-07-27T18:23:18.285Z,9.63
2022-07-27T18:25:47.039Z,9.43
2022-07-27T18:28:19.369Z,7.90
2022-07-27T18:30:49.351Z,8.57
2022-07-27T18:33:17.878Z,8.65
2022-07-27T18:35:47.113Z,10.02
2022-07-27T18:38:16.804Z,9.80
2022-07-27T18:40:47.189Z,12.55
2022-07-27T18:43:17.968Z,8.85
2022-07-27T18:45:46.027Z,8.27
2022-07-27T18:48:14.077Z,8.70
2022-07-27T18:50:42.145Z,10.13
2022-07-27T18:53:10.398Z,9.35
2022-07-27T18:55:38.833Z,8.80
2022-07-27T18:58:07.079Z,9.63
2022-07-27T19:00:36.513Z,9.10
2022-07-27T19:03:04.932Z,8.85
2022-07-27T19:05:41.576Z,8.90
2022-07-27T19:08:12.881Z,9.55
2022-07-27T19:10:42.181Z,9.02
2022-07-27T19:13:10.625Z,8.73
2022-07-27T19:15:40.447Z,8.98
2022-07-27T19:18:09.145Z,7.30
2022-07-27T19:20:37.747Z,7.88
2022-07-27T19:23:05.895Z,7.88
2022-07-27T19:25:34.694Z,8.25
2022-07-27T19:28:02.850Z,9.15
2022-07-27T19:30:31.030Z,8.32
2022-07-27T19:33:00.425Z,8.07
2022-07-27T19:35:28.640Z,7.93
2022-07-27T19:37:56.668Z,8.32
2022-07-27T19:43:12.520Z,8.35
2022-07-27T19:45:41.514Z,8.30
2022-07-27T19:48:12.234Z,8.88
2022-07-27T19:50:40.842Z,9.68
2022-07-27T19:53:09.200Z,9.68
2022-07-27T19:55:37.221Z,9.20
2022-07-27T19:58:05.427Z,8.15
2022-07-27T20:00:34.401Z,8.38
2022-07-27T20:03:03.267Z,9.57
2022-07-27T20:05:32.945Z,9.55
2022-07-27T20:08:00.959Z,10.18
2022-07-27T20:10:28.905Z,8.82
2022-07-27T20:12:56.815Z,10.23
2022-07-27T20:15:26.206Z,9.32
2022-07-27T20:17:54.125Z,9.68
2022-07-27T20:20:22.005Z,9.35
2022-07-27T20:22:51.534Z,10.45
2022-07-27T20:25:20.228Z,9.95
2022-07-27T20:27:48.482Z,10.15
2022-07-27T20:30:18.120Z,10.43
2022-07-27T20:32:46.903Z,9.38
2022-07-27T21:17:09.741Z,9.52
2022-07-27T21:19:39.017Z,10.70
2022-07-27T21:22:06.966Z,10.10
2022-07-27T21:24:34.948Z,11.00
2022-07-27T21:27:05.076Z,10.57
2022-07-27T21:29:33.204Z,10.45
2022-07-27T21:32:01.165Z,9.48
2022-07-27T21:34:29.085Z,9.50
2022-07-27T21:36:58.398Z,9.02
2022-07-27T21:39:28.853Z,8.23
2022-07-27T21:42:01.710Z,8.82
2022-07-27T21:44:30.128Z,8.15
2022-07-27T21:46:58.209Z,8.43
2022-07-27T21:49:34.150Z,7.97
2022-07-27T21:52:04.187Z,7.88
2022-07-27T21:54:32.117Z,7.95
2022-07-27T21:57:00.035Z,7.78
2022-07-27T21:59:28.043Z,7.75
2022-07-27T22:01:55.971Z,7.45
2022-07-27T22:04:23.985Z,8.40
2022-07-27T22:06:51.957Z,7.18
2022-07-27T22:09:21.246Z,7.40
2022-07-27T22:11:49.154Z,7.82
2022-07-27T22:14:17.930Z,8.27
2022-07-27T22:16:46.158Z,8.13
2022-07-27T22:19:14.184Z,7.65
2022-07-27T22:21:42.086Z,7.50
2022-07-27T22:24:10.339Z,8.00
2022-07-27T22:26:40.035Z,7.57
2022-07-27T22:29:07.973Z,7.80
2022-07-27T22:31:35.986Z,7.72
2022-07-27T22:34:03.997Z,7.50
2022-07-27T22:36:32.531Z,7.40
2022-07-27T22:39:00.451Z,7.30
2022-07-27T22:41:28.504Z,7.07
2022-07-27T22:43:57.803Z,7.50
2022-07-27T22:46:26.079Z,8.05
2022-07-27T22:48:54.085Z,7.60
2022-07-27T22:51:22.072Z,7.70
2022-07-27T22:53:49.952Z,7.40
2022-07-27T22:56:18.261Z,7.13
2022-07-27T22:58:46.169Z,7.30
2022-07-27T23:01:41.627Z,7.55
2022-07-27T23:04:03.483Z,7.82
2022-07-27T23:06:31.397Z,7.63
2022-07-27T23:08:59.313Z,8.65
2022-07-27T23:11:27.221Z,7.95
2022-07-27T23:13:55.172Z,8.23
2022-07-27T23:16:24.553Z,8.52
2022-07-27T23:18:52.665Z,7.85
2022-07-27T23:21:20.698Z,8.20
2022-07-27T23:23:51.055Z,8.15
2022-07-27T23:26:23.147Z,7.75
2022-07-27T23:28:54.017Z,7.97
2022-07-27T23:31:22.036Z,7.97
2022-07-27T23:33:51.508Z,8.40
2022-07-27T23:36:19.452Z,8.43
2022-07-27T23:38:47.684Z,8.13
2022-07-27T23:41:17.028Z,8.00
2022-07-27T23:43:45.074Z,9.57
2022-07-27T23:46:13.094Z,9.82
2022-07-27T23:48:41.121Z,9.43
2022-07-27T23:51:10.465Z,10.02
2022-07-27T23:53:38.369Z,9.98
2022-07-27T23:56:06.644Z,9.82
2022-07-27T23:58:34.524Z,9.45
